sensor_id;sensor_type;location;lat;lon;timestamp;temperature;humidity
18291;DHT22;9271;48.590;8.866;2023-04-01T00:02:22;9.00;99.90
18291;DHT22;9271;48.590;8.866;2023-04-01T00:04:48;9.00;99.90
18291;DHT22;9271;48.590;8.866;2023-04-01T00:07:15;8.80;99.90
18291;DHT22;9271;48.590;8.866;2023-04-01T00:09:42;9.00;99.90
18291;DHT22;9271;48.590;8.866;2023-04-01T00:12:10;9.00;99.90
18291;DHT22;9271;48.590;8.866;2023-04-01T00:14:36;9.20;99.90
18291;DHT22;9271;48.590;8.866;2023-04-01T00:17:03;9.20;99.90
18291;DHT22;9271;48.590;8.866;2023-04-01T00:19:30;9.10;99.90
18291;DHT22;9271;48.590;8.866;2023-04-01T00:21:57;9.10;99.90
18291;DHT22;9271;48.590;8.866;2023-04-01T00:24:24;9.00;99.90
18291;DHT22;9271;48.590;8.866;2023-04-01T00:26:51;9.00;99.90
18291;DHT22;9271;48.590;8.866;2023-04-01T00:29:19;9.00;99.90
18291;DHT22;9271;48.590;8.866;2023-04-01T00:31:46;9.10;99.90
18291;DHT22;9271;48.590;8.866;2023-04-01T00:34:13;9.00;99.90
18291;DHT22;9271;48.590;8.866;2023-04-01T00:36:40;8.90;99.90
18291;DHT22;9271;48.590;8.866;2023-04-01T00:39:07;9.00;99.90
18291;DHT22;9271;48.590;8.866;2023-04-01T00:41:33;9.00;99.90
18291;DHT22;9271;48.590;8.866;2023-04-01T00:44:20;8.90;99.90
18291;DHT22;9271;48.590;8.866;2023-04-01T00:46:47;9.10;99.90
18291;DHT22;9271;48.590;8.866;2023-04-01T00:49:14;9.10;99.90
18291;DHT22;9271;48.590;8.866;2023-04-01T00:51:42;8.90;99.90
18291;DHT22;9271;48.590;8.866;2023-04-01T00:54:10;8.90;99.90
18291;DHT22;9271;48.590;8.866;2023-04-01T00:56:39;9.10;99.90
18291;DHT22;9271;48.590;8.866;2023-04-01T00:59:11;9.00;99.90
18291;DHT22;9271;48.590;8.866;2023-04-01T01:01:41;9.30;99.90
18291;DHT22;9271;48.590;8.866;2023-04-01T01:04:21;9.00;99.90
18291;DHT22;9271;48.590;8.866;2023-04-01T01:06:54;8.70;99.90
18291;DHT22;9271;48.590;8.866;2023-04-01T01:09:31;8.70;99.90
18291;DHT22;9271;48.590;8.866;2023-04-01T01:12:05;8.90;99.90
18291;DHT22;9271;48.590;8.866;2023-04-01T01:14:40;8.70;99.90
18291;DHT22;9271;48.590;8.866;2023-04-01T01:17:15;8.70;99.90
18291;DHT22;9271;48.590;8.866;2023-04-01T01:19:56;8.90;99.90
18291;DHT22;9271;48.590;8.866;2023-04-01T01:22:36;8.90;99.90
18291;DHT22;9271;48.590;8.866;2023-04-01T01:25:14;9.00;99.90
18291;DHT22;9271;48.590;8.866;2023-04-01T01:27:49;9.20;99.90
18291;DHT22;9271;48.590;8.866;2023-04-01T01:30:33;9.00;99.90
18291;DHT22;9271;48.590;8.866;2023-04-01T01:33:24;8.80;99.90
18291;DHT22;9271;48.590;8.866;2023-04-01T01:35:58;8.60;99.90
18291;DHT22;9271;48.590;8.866;2023-04-01T01:38:28;8.60;99.90
18291;DHT22;9271;48.590;8.866;2023-04-01T01:40:57;8.60;99.90
18291;DHT22;9271;48.590;8.866;2023-04-01T01:43:28;8.50;99.90
18291;DHT22;9271;48.590;8.866;2023-04-01T01:45:58;8.60;99.90
18291;DHT22;9271;48.590;8.866;2023-04-01T01:48:27;8.50;99.90
18291;DHT22;9271;48.590;8.866;2023-04-01T01:50:54;8.50;99.90
18291;DHT22;9271;48.590;8.866;2023-04-01T01:53:22;8.50;99.90
18291;DHT22;9271;48.590;8.866;2023-04-01T01:55:49;8.70;99.90
18291;DHT22;9271;48.590;8.866;2023-04-01T01:58:19;8.70;99.90
18291;DHT22;9271;48.590;8.866;2023-04-01T02:00:49;8.60;99.90
18291;DHT22;9271;48.590;8.866;2023-04-01T02:03:17;8.50;99.90
18291;DHT22;9271;48.590;8.866;2023-04-01T02:05:47;8.60;99.90
18291;DHT22;9271;48.590;8.866;2023-04-01T02:08:16;8.50;99.90
18291;DHT22;9271;48.590;8.866;2023-04-01T02:10:53;8.50;99.90
18291;DHT22;9271;48.590;8.866;2023-04-01T02:13:25;8.50;99.90
18291;DHT22;9271;48.590;8.866;2023-04-01T02:15:55;8.60;99.90
18291;DHT22;9271;48.590;8.866;2023-04-01T02:18:22;8.40;99.90
18291;DHT22;9271;48.590;8.866;2023-04-01T02:20:50;8.30;99.90
18291;DHT22;9271;48.590;8.866;2023-04-01T02:23:17;8.50;99.90
18291;DHT22;9271;48.590;8.866;2023-04-01T02:25:46;8.50;99.90
18291;DHT22;9271;48.590;8.866;2023-04-01T02:28:13;8.60;99.90
18291;DHT22;9271;48.590;8.866;2023-04-01T02:30:43;8.50;99.90
18291;DHT22;9271;48.590;8.866;2023-04-01T02:33:11;8.40;99.90
18291;DHT22;9271;48.590;8.866;2023-04-01T02:35:37;8.40;99.90
18291;DHT22;9271;48.590;8.866;2023-04-01T02:38:05;8.40;99.90
18291;DHT22;9271;48.590;8.866;2023-04-01T02:40:42;8.50;99.90
18291;DHT22;9271;48.590;8.866;2023-04-01T02:43:10;8.40;99.90
18291;DHT22;9271;48.590;8.866;2023-04-01T02:45:37;8.40;99.90
18291;DHT22;9271;48.590;8.866;2023-04-01T02:48:04;8.20;99.90
18291;DHT22;9271;48.590;8.866;2023-04-01T02:50:31;8.40;99.90
18291;DHT22;9271;48.590;8.866;2023-04-01T02:52:57;8.50;99.90
18291;DHT22;9271;48.590;8.866;2023-04-01T02:55:24;8.30;99.90
18291;DHT22;9271;48.590;8.866;2023-04-01T02:57:51;8.40;99.90
18291;DHT22;9271;48.590;8.866;2023-04-01T03:00:19;8.50;99.90
18291;DHT22;9271;48.590;8.866;2023-04-01T03:02:46;8.70;99.90
18291;DHT22;9271;48.590;8.866;2023-04-01T03:05:13;8.60;99.90
18291;DHT22;9271;48.590;8.866;2023-04-01T03:07:39;8.80;99.90
18291;DHT22;9271;48.590;8.866;2023-04-01T03:10:07;8.90;99.90
18291;DHT22;9271;48.590;8.866;2023-04-01T03:12:34;8.90;99.90
18291;DHT22;9271;48.590;8.866;2023-04-01T03:15:00;8.70;99.90
18291;DHT22;9271;48.590;8.866;2023-04-01T03:17:28;8.50;99.90
18291;DHT22;9271;48.590;8.866;2023-04-01T03:19:55;8.50;99.90
18291;DHT22;9271;48.590;8.866;2023-04-01T03:22:22;8.60;99.90
18291;DHT22;9271;48.590;8.866;2023-04-01T03:24:49;8.40;99.90
18291;DHT22;9271;48.590;8.866;2023-04-01T03:27:15;8.50;99.90
18291;DHT22;9271;48.590;8.866;2023-04-01T03:29:42;8.40;99.90
18291;DHT22;9271;48.590;8.866;2023-04-01T03:32:09;8.30;99.90
18291;DHT22;9271;48.590;8.866;2023-04-01T03:34:37;8.30;99.90
18291;DHT22;9271;48.590;8.866;2023-04-01T03:37:03;8.50;99.90
18291;DHT22;9271;48.590;8.866;2023-04-01T03:39:31;8.50;99.90
18291;DHT22;9271;48.590;8.866;2023-04-01T03:41:57;8.60;99.90
18291;DHT22;9271;48.590;8.866;2023-04-01T03:44:24;8.80;99.90
18291;DHT22;9271;48.590;8.866;2023-04-01T03:46:51;8.90;99.90
18291;DHT22;9271;48.590;8.866;2023-04-01T03:49:17;8.90;99.90
18291;DHT22;9271;48.590;8.866;2023-04-01T03:51:45;8.80;99.90
18291;DHT22;9271;48.590;8.866;2023-04-01T03:54:12;8.80;99.90
18291;DHT22;9271;48.590;8.866;2023-04-01T03:56:39;8.80;99.90
18291;DHT22;9271;48.590;8.866;2023-04-01T03:59:07;8.50;99.90
18291;DHT22;9271;48.590;8.866;2023-04-01T04:01:33;8.40;99.90
18291;DHT22;9271;48.590;8.866;2023-04-01T04:04:00;8.00;99.90
18291;DHT22;9271;48.590;8.866;2023-04-01T04:06:27;8.10;99.90
18291;DHT22;9271;48.590;8.866;2023-04-01T04:08:55;8.00;99.90
18291;DHT22;9271;48.590;8.866;2023-04-01T04:11:22;8.00;99.90
18291;DHT22;9271;48.590;8.866;2023-04-01T04:13:49;8.00;99.90
18291;DHT22;9271;48.590;8.866;2023-04-01T04:16:17;8.30;99.90
18291;DHT22;9271;48.590;8.866;2023-04-01T04:18:44;8.40;99.90
18291;DHT22;9271;48.590;8.866;2023-04-01T04:21:12;8.50;99.90
18291;DHT22;9271;48.590;8.866;2023-04-01T04:23:39;8.20;99.90
18291;DHT22;9271;48.590;8.866;2023-04-01T04:26:10;7.70;99.90
18291;DHT22;9271;48.590;8.866;2023-04-01T04:28:37;7.70;99.90
18291;DHT22;9271;48.590;8.866;2023-04-01T04:31:04;7.80;99.90
18291;DHT22;9271;48.590;8.866;2023-04-01T04:33:31;8.00;99.90
18291;DHT22;9271;48.590;8.866;2023-04-01T04:35:59;7.80;99.90
18291;DHT22;9271;48.590;8.866;2023-04-01T04:38:26;8.10;99.90
18291;DHT22;9271;48.590;8.866;2023-04-01T04:40:53;7.90;99.90
18291;DHT22;9271;48.590;8.866;2023-04-01T04:43:22;8.20;99.90
18291;DHT22;9271;48.590;8.866;2023-04-01T04:45:48;8.20;99.90
18291;DHT22;9271;48.590;8.866;2023-04-01T04:48:16;8.40;99.90
18291;DHT22;9271;48.590;8.866;2023-04-01T04:50:44;8.20;99.90
18291;DHT22;9271;48.590;8.866;2023-04-01T04:53:11;8.20;99.90
18291;DHT22;9271;48.590;8.866;2023-04-01T04:55:42;8.30;99.90
18291;DHT22;9271;48.590;8.866;2023-04-01T04:58:09;8.50;99.90
18291;DHT22;9271;48.590;8.866;2023-04-01T05:00:37;8.50;99.90
18291;DHT22;9271;48.590;8.866;2023-04-01T05:03:03;8.50;99.90
18291;DHT22;9271;48.590;8.866;2023-04-01T05:05:30;8.70;99.90
18291;DHT22;9271;48.590;8.866;2023-04-01T05:07:57;8.90;99.90
18291;DHT22;9271;48.590;8.866;2023-04-01T05:10:23;8.90;99.90
18291;DHT22;9271;48.590;8.866;2023-04-01T05:12:50;8.70;99.90
18291;DHT22;9271;48.590;8.866;2023-04-01T05:15:17;8.70;99.90
18291;DHT22;9271;48.590;8.866;2023-04-01T05:17:45;9.00;99.90
18291;DHT22;9271;48.590;8.866;2023-04-01T05:20:12;8.90;99.90
18291;DHT22;9271;48.590;8.866;2023-04-01T05:22:39;9.00;99.90
18291;DHT22;9271;48.590;8.866;2023-04-01T05:25:06;8.90;99.90
18291;DHT22;9271;48.590;8.866;2023-04-01T05:27:33;8.60;99.90
18291;DHT22;9271;48.590;8.866;2023-04-01T05:30:00;8.80;99.90
18291;DHT22;9271;48.590;8.866;2023-04-01T05:32:26;9.00;99.90
18291;DHT22;9271;48.590;8.866;2023-04-01T05:34:54;8.90;99.90
18291;DHT22;9271;48.590;8.866;2023-04-01T05:37:21;8.80;99.90
18291;DHT22;9271;48.590;8.866;2023-04-01T05:39:48;8.90;99.90
18291;DHT22;9271;48.590;8.866;2023-04-01T05:42:15;8.90;99.90
18291;DHT22;9271;48.590;8.866;2023-04-01T05:44:42;8.80;99.90
18291;DHT22;9271;48.590;8.866;2023-04-01T05:47:08;9.10;99.90
18291;DHT22;9271;48.590;8.866;2023-04-01T05:49:35;9.20;99.90
18291;DHT22;9271;48.590;8.866;2023-04-01T05:52:03;9.30;99.90
18291;DHT22;9271;48.590;8.866;2023-04-01T05:54:29;9.40;99.90
18291;DHT22;9271;48.590;8.866;2023-04-01T05:56:56;9.30;99.90
18291;DHT22;9271;48.590;8.866;2023-04-01T05:59:22;9.10;99.90
18291;DHT22;9271;48.590;8.866;2023-04-01T06:01:49;8.80;99.90
18291;DHT22;9271;48.590;8.866;2023-04-01T06:04:17;8.90;99.90
18291;DHT22;9271;48.590;8.866;2023-04-01T06:06:44;9.20;99.90
18291;DHT22;9271;48.590;8.866;2023-04-01T06:09:15;9.10;99.90
18291;DHT22;9271;48.590;8.866;2023-04-01T06:12:07;9.10;99.90
18291;DHT22;9271;48.590;8.866;2023-04-01T06:14:44;9.10;99.90
18291;DHT22;9271;48.590;8.866;2023-04-01T06:17:23;9.00;99.90
18291;DHT22;9271;48.590;8.866;2023-04-01T06:19:56;8.80;99.90
18291;DHT22;9271;48.590;8.866;2023-04-01T06:22:42;8.90;99.90
18291;DHT22;9271;48.590;8.866;2023-04-01T06:25:24;8.90;99.90
18291;DHT22;9271;48.590;8.866;2023-04-01T06:28:07;9.00;99.90
18291;DHT22;9271;48.590;8.866;2023-04-01T06:30:43;9.00;99.90
18291;DHT22;9271;48.590;8.866;2023-04-01T06:33:24;9.00;99.90
18291;DHT22;9271;48.590;8.866;2023-04-01T06:36:06;8.90;99.90
18291;DHT22;9271;48.590;8.866;2023-04-01T06:38:47;8.70;99.90
18291;DHT22;9271;48.590;8.866;2023-04-01T06:41:27;8.70;99.90
18291;DHT22;9271;48.590;8.866;2023-04-01T06:44:09;8.90;99.90
18291;DHT22;9271;48.590;8.866;2023-04-01T06:46:45;9.00;99.90
18291;DHT22;9271;48.590;8.866;2023-04-01T06:49:25;9.20;99.90
18291;DHT22;9271;48.590;8.866;2023-04-01T06:51:59;9.20;99.90
18291;DHT22;9271;48.590;8.866;2023-04-01T06:54:32;9.40;99.90
18291;DHT22;9271;48.590;8.866;2023-04-01T06:57:05;9.30;99.90
18291;DHT22;9271;48.590;8.866;2023-04-01T06:59:37;9.30;99.90
18291;DHT22;9271;48.590;8.866;2023-04-01T07:02:11;9.30;99.90
18291;DHT22;9271;48.590;8.866;2023-04-01T07:04:44;9.30;99.90
18291;DHT22;9271;48.590;8.866;2023-04-01T07:07:16;9.30;99.90
18291;DHT22;9271;48.590;8.866;2023-04-01T07:09:50;9.40;99.90
18291;DHT22;9271;48.590;8.866;2023-04-01T07:12:32;9.40;99.90
18291;DHT22;9271;48.590;8.866;2023-04-01T07:15:05;9.40;99.90
18291;DHT22;9271;48.590;8.866;2023-04-01T07:17:39;9.30;99.90
18291;DHT22;9271;48.590;8.866;2023-04-01T07:20:13;9.50;99.90
18291;DHT22;9271;48.590;8.866;2023-04-01T07:22:45;9.40;99.90
18291;DHT22;9271;48.590;8.866;2023-04-01T07:25:17;9.10;99.90
18291;DHT22;9271;48.590;8.866;2023-04-01T07:27:46;9.20;99.90
18291;DHT22;9271;48.590;8.866;2023-04-01T07:30:15;9.20;99.90
18291;DHT22;9271;48.590;8.866;2023-04-01T07:32:45;9.20;99.90
18291;DHT22;9271;48.590;8.866;2023-04-01T07:35:22;9.40;99.90
18291;DHT22;9271;48.590;8.866;2023-04-01T07:38:01;9.80;99.90
18291;DHT22;9271;48.590;8.866;2023-04-01T07:40:34;9.60;99.90
18291;DHT22;9271;48.590;8.866;2023-04-01T07:43:19;9.40;99.90
18291;DHT22;9271;48.590;8.866;2023-04-01T07:45:55;9.70;99.90
18291;DHT22;9271;48.590;8.866;2023-04-01T07:48:30;9.70;99.90
18291;DHT22;9271;48.590;8.866;2023-04-01T07:51:02;9.60;99.90
18291;DHT22;9271;48.590;8.866;2023-04-01T07:53:34;9.40;99.90
18291;DHT22;9271;48.590;8.866;2023-04-01T07:56:07;9.40;99.90
18291;DHT22;9271;48.590;8.866;2023-04-01T07:58:44;9.40;99.90
18291;DHT22;9271;48.590;8.866;2023-04-01T08:01:17;9.30;99.90
18291;DHT22;9271;48.590;8.866;2023-04-01T08:04:02;9.20;99.90
18291;DHT22;9271;48.590;8.866;2023-04-01T08:06:39;9.30;99.90
18291;DHT22;9271;48.590;8.866;2023-04-01T08:09:14;9.30;99.90
18291;DHT22;9271;48.590;8.866;2023-04-01T08:11:57;9.20;99.90
18291;DHT22;9271;48.590;8.866;2023-04-01T08:14:33;9.20;99.90
18291;DHT22;9271;48.590;8.866;2023-04-01T08:17:07;9.00;99.90
18291;DHT22;9271;48.590;8.866;2023-04-01T08:19:48;9.30;99.90
18291;DHT22;9271;48.590;8.866;2023-04-01T08:22:25;9.80;99.90
18291;DHT22;9271;48.590;8.866;2023-04-01T08:24:54;9.50;99.90
18291;DHT22;9271;48.590;8.866;2023-04-01T08:27:27;9.40;99.90
18291;DHT22;9271;48.590;8.866;2023-04-01T08:29:58;9.00;99.90
18291;DHT22;9271;48.590;8.866;2023-04-01T08:32:29;8.90;99.90
18291;DHT22;9271;48.590;8.866;2023-04-01T08:35:07;9.20;99.90
18291;DHT22;9271;48.590;8.866;2023-04-01T08:37:38;9.20;99.90
18291;DHT22;9271;48.590;8.866;2023-04-01T08:40:32;9.10;99.90
18291;DHT22;9271;48.590;8.866;2023-04-01T08:43:09;9.10;99.90
18291;DHT22;9271;48.590;8.866;2023-04-01T08:45:49;8.80;99.90
18291;DHT22;9271;48.590;8.866;2023-04-01T08:48:31;8.90;99.90
18291;DHT22;9271;48.590;8.866;2023-04-01T08:54:17;9.10;99.90
18291;DHT22;9271;48.590;8.866;2023-04-01T08:56:54;9.30;99.90
18291;DHT22;9271;48.590;8.866;2023-04-01T08:59:40;9.50;99.90
18291;DHT22;9271;48.590;8.866;2023-04-01T09:02:31;9.40;99.90
18291;DHT22;9271;48.590;8.866;2023-04-01T09:05:43;9.70;99.90
18291;DHT22;9271;48.590;8.866;2023-04-01T09:08:25;10.10;99.90
18291;DHT22;9271;48.590;8.866;2023-04-01T09:11:02;10.20;99.90
18291;DHT22;9271;48.590;8.866;2023-04-01T09:13:56;10.10;99.90
18291;DHT22;9271;48.590;8.866;2023-04-01T09:16:47;9.70;99.90
18291;DHT22;9271;48.590;8.866;2023-04-01T09:19:28;9.60;99.90
18291;DHT22;9271;48.590;8.866;2023-04-01T09:22:13;9.40;99.90
18291;DHT22;9271;48.590;8.866;2023-04-01T09:27:45;9.30;99.90
18291;DHT22;9271;48.590;8.866;2023-04-01T09:30:42;9.30;99.90
18291;DHT22;9271;48.590;8.866;2023-04-01T09:33:40;9.10;99.90
18291;DHT22;9271;48.590;8.866;2023-04-01T09:36:20;9.60;99.90
18291;DHT22;9271;48.590;8.866;2023-04-01T09:38:56;9.70;99.90
18291;DHT22;9271;48.590;8.866;2023-04-01T09:41:30;10.40;99.90
18291;DHT22;9271;48.590;8.866;2023-04-01T09:44:13;10.50;99.90
18291;DHT22;9271;48.590;8.866;2023-04-01T09:46:53;10.10;99.90
18291;DHT22;9271;48.590;8.866;2023-04-01T09:49:43;9.60;99.90
18291;DHT22;9271;48.590;8.866;2023-04-01T09:52:29;9.50;99.90
18291;DHT22;9271;48.590;8.866;2023-04-01T09:55:21;9.40;99.90
18291;DHT22;9271;48.590;8.866;2023-04-01T10:01:28;9.20;99.90
18291;DHT22;9271;48.590;8.866;2023-04-01T10:04:24;9.10;99.90
18291;DHT22;9271;48.590;8.866;2023-04-01T10:07:24;9.20;99.90
18291;DHT22;9271;48.590;8.866;2023-04-01T10:13:34;9.60;99.90
18291;DHT22;9271;48.590;8.866;2023-04-01T10:22:55;9.60;99.90
18291;DHT22;9271;48.590;8.866;2023-04-01T10:25:40;9.80;99.90
18291;DHT22;9271;48.590;8.866;2023-04-01T10:28:35;9.60;99.90
18291;DHT22;9271;48.590;8.866;2023-04-01T10:31:42;9.70;99.90
18291;DHT22;9271;48.590;8.866;2023-04-01T10:37:49;10.80;99.90
18291;DHT22;9271;48.590;8.866;2023-04-01T10:40:46;10.70;99.90
18291;DHT22;9271;48.590;8.866;2023-04-01T10:47:06;10.70;99.90
18291;DHT22;9271;48.590;8.866;2023-04-01T10:49:49;11.10;99.90
18291;DHT22;9271;48.590;8.866;2023-04-01T10:55:37;10.90;99.90
18291;DHT22;9271;48.590;8.866;2023-04-01T10:58:37;11.30;99.90
18291;DHT22;9271;48.590;8.866;2023-04-01T11:01:43;11.70;99.90
18291;DHT22;9271;48.590;8.866;2023-04-01T11:04:46;10.70;99.90
18291;DHT22;9271;48.590;8.866;2023-04-01T11:07:48;10.40;99.90
18291;DHT22;9271;48.590;8.866;2023-04-01T11:13:46;10.50;99.90
18291;DHT22;9271;48.590;8.866;2023-04-01T11:16:34;10.30;99.90
18291;DHT22;9271;48.590;8.866;2023-04-01T11:19:39;10.40;99.90
18291;DHT22;9271;48.590;8.866;2023-04-01T11:22:32;10.70;99.90
18291;DHT22;9271;48.590;8.866;2023-04-01T11:25:24;10.80;99.90
18291;DHT22;9271;48.590;8.866;2023-04-01T11:28:27;11.70;99.90
18291;DHT22;9271;48.590;8.866;2023-04-01T11:31:24;12.40;99.90
18291;DHT22;9271;48.590;8.866;2023-04-01T11:33:55;13.20;99.90
18291;DHT22;9271;48.590;8.866;2023-04-01T11:36:33;13.40;99.90
18291;DHT22;9271;48.590;8.866;2023-04-01T11:39:14;12.70;99.90
18291;DHT22;9271;48.590;8.866;2023-04-01T11:41:52;12.10;99.90
18291;DHT22;9271;48.590;8.866;2023-04-01T11:44:25;11.80;99.90
18291;DHT22;9271;48.590;8.866;2023-04-01T11:47:10;11.70;99.90
18291;DHT22;9271;48.590;8.866;2023-04-01T11:49:51;11.90;99.90
18291;DHT22;9271;48.590;8.866;2023-04-01T11:52:36;12.20;99.90
18291;DHT22;9271;48.590;8.866;2023-04-01T11:55:31;12.00;99.90
18291;DHT22;9271;48.590;8.866;2023-04-01T11:58:23;12.10;99.90
18291;DHT22;9271;48.590;8.866;2023-04-01T12:01:13;12.50;99.90
18291;DHT22;9271;48.590;8.866;2023-04-01T12:07:02;12.80;99.90
18291;DHT22;9271;48.590;8.866;2023-04-01T12:09:35;13.40;99.90
18291;DHT22;9271;48.590;8.866;2023-04-01T12:12:14;13.10;99.70
18291;DHT22;9271;48.590;8.866;2023-04-01T12:14:50;13.30;99.90
18291;DHT22;9271;48.590;8.866;2023-04-01T12:17:29;13.40;99.80
18291;DHT22;9271;48.590;8.866;2023-04-01T12:20:01;12.50;99.90
18291;DHT22;9271;48.590;8.866;2023-04-01T12:22:45;12.40;99.90
18291;DHT22;9271;48.590;8.866;2023-04-01T12:25:22;13.30;99.90
18291;DHT22;9271;48.590;8.866;2023-04-01T12:28:03;13.10;99.30
18291;DHT22;9271;48.590;8.866;2023-04-01T12:30:42;13.20;99.90
18291;DHT22;9271;48.590;8.866;2023-04-01T12:33:30;13.60;99.10
18291;DHT22;9271;48.590;8.866;2023-04-01T12:36:05;13.40;99.10
18291;DHT22;9271;48.590;8.866;2023-04-01T12:38:44;13.10;99.60
18291;DHT22;9271;48.590;8.866;2023-04-01T12:41:21;12.70;99.90
18291;DHT22;9271;48.590;8.866;2023-04-01T12:44:03;12.80;99.90
18291;DHT22;9271;48.590;8.866;2023-04-01T12:46:40;12.60;99.90
18291;DHT22;9271;48.590;8.866;2023-04-01T12:52:25;14.20;98.90
18291;DHT22;9271;48.590;8.866;2023-04-01T12:55:21;15.70;95.90
18291;DHT22;9271;48.590;8.866;2023-04-01T13:01:10;14.60;98.10
18291;DHT22;9271;48.590;8.866;2023-04-01T13:03:53;15.40;96.80
18291;DHT22;9271;48.590;8.866;2023-04-01T13:06:43;16.00;94.90
18291;DHT22;9271;48.590;8.866;2023-04-01T13:09:24;15.00;95.90
18291;DHT22;9271;48.590;8.866;2023-04-01T13:12:16;14.20;96.90
18291;DHT22;9271;48.590;8.866;2023-04-01T13:15:05;14.30;96.60
18291;DHT22;9271;48.590;8.866;2023-04-01T13:17:43;13.90;97.60
18291;DHT22;9271;48.590;8.866;2023-04-01T13:20:19;14.00;97.20
18291;DHT22;9271;48.590;8.866;2023-04-01T13:22:58;14.50;96.80
18291;DHT22;9271;48.590;8.866;2023-04-01T13:25:34;13.70;96.70
18291;DHT22;9271;48.590;8.866;2023-04-01T13:28:09;13.60;96.90
18291;DHT22;9271;48.590;8.866;2023-04-01T13:30:44;13.20;98.00
18291;DHT22;9271;48.590;8.866;2023-04-01T13:33:19;12.60;99.30
18291;DHT22;9271;48.590;8.866;2023-04-01T13:35:59;12.10;99.50
18291;DHT22;9271;48.590;8.866;2023-04-01T13:38:46;12.20;99.90
18291;DHT22;9271;48.590;8.866;2023-04-01T13:41:23;12.30;99.90
18291;DHT22;9271;48.590;8.866;2023-04-01T13:43:59;12.30;99.20
18291;DHT22;9271;48.590;8.866;2023-04-01T13:46:52;12.20;99.80
18291;DHT22;9271;48.590;8.866;2023-04-01T13:49:48;11.90;99.90
18291;DHT22;9271;48.590;8.866;2023-04-01T13:52:41;12.50;99.90
18291;DHT22;9271;48.590;8.866;2023-04-01T13:55:23;13.00;99.60
18291;DHT22;9271;48.590;8.866;2023-04-01T13:58:09;12.80;99.00
18291;DHT22;9271;48.590;8.866;2023-04-01T14:00:55;13.20;98.70
18291;DHT22;9271;48.590;8.866;2023-04-01T14:03:30;13.50;98.20
18291;DHT22;9271;48.590;8.866;2023-04-01T14:06:14;12.70;97.50
18291;DHT22;9271;48.590;8.866;2023-04-01T14:09:00;11.90;99.70
18291;DHT22;9271;48.590;8.866;2023-04-01T14:11:35;12.00;99.40
18291;DHT22;9271;48.590;8.866;2023-04-01T14:14:16;12.10;99.90
18291;DHT22;9271;48.590;8.866;2023-04-01T14:16:57;12.00;99.60
18291;DHT22;9271;48.590;8.866;2023-04-01T14:19:49;12.50;99.90
18291;DHT22;9271;48.590;8.866;2023-04-01T14:22:25;12.50;99.90
18291;DHT22;9271;48.590;8.866;2023-04-01T14:25:30;12.20;99.50
18291;DHT22;9271;48.590;8.866;2023-04-01T14:28:07;11.80;99.70
18291;DHT22;9271;48.590;8.866;2023-04-01T14:30:43;11.70;99.90
18291;DHT22;9271;48.590;8.866;2023-04-01T14:33:28;11.70;99.90
18291;DHT22;9271;48.590;8.866;2023-04-01T14:36:19;11.60;99.90
18291;DHT22;9271;48.590;8.866;2023-04-01T14:38:55;11.80;99.90
18291;DHT22;9271;48.590;8.866;2023-04-01T14:41:34;11.90;99.90
18291;DHT22;9271;48.590;8.866;2023-04-01T14:44:16;12.30;99.90
18291;DHT22;9271;48.590;8.866;2023-04-01T14:47:09;12.80;99.90
18291;DHT22;9271;48.590;8.866;2023-04-01T14:49:42;13.00;98.30
18291;DHT22;9271;48.590;8.866;2023-04-01T14:52:13;12.60;99.20
18291;DHT22;9271;48.590;8.866;2023-04-01T14:54:42;12.60;98.50
18291;DHT22;9271;48.590;8.866;2023-04-01T14:57:12;12.40;98.60
18291;DHT22;9271;48.590;8.866;2023-04-01T14:59:40;12.60;98.50
18291;DHT22;9271;48.590;8.866;2023-04-01T15:02:18;12.30;98.40
18291;DHT22;9271;48.590;8.866;2023-04-01T15:04:58;12.30;98.70
18291;DHT22;9271;48.590;8.866;2023-04-01T15:07:53;11.90;99.60
18291;DHT22;9271;48.590;8.866;2023-04-01T15:10:43;12.40;99.30
18291;DHT22;9271;48.590;8.866;2023-04-01T15:13:18;12.50;98.70
18291;DHT22;9271;48.590;8.866;2023-04-01T15:16:00;12.20;99.20
18291;DHT22;9271;48.590;8.866;2023-04-01T15:18:38;12.00;99.80
18291;DHT22;9271;48.590;8.866;2023-04-01T15:21:18;11.60;99.90
18291;DHT22;9271;48.590;8.866;2023-04-01T15:23:57;11.60;99.90
18291;DHT22;9271;48.590;8.866;2023-04-01T15:26:34;11.70;99.90
18291;DHT22;9271;48.590;8.866;2023-04-01T15:29:31;12.30;99.90
18291;DHT22;9271;48.590;8.866;2023-04-01T15:32:02;11.50;99.90
18291;DHT22;9271;48.590;8.866;2023-04-01T15:34:35;11.70;99.90
18291;DHT22;9271;48.590;8.866;2023-04-01T15:37:11;11.50;99.90
18291;DHT22;9271;48.590;8.866;2023-04-01T15:39:51;11.40;99.90
18291;DHT22;9271;48.590;8.866;2023-04-01T15:42:32;11.70;99.90
18291;DHT22;9271;48.590;8.866;2023-04-01T15:45:16;11.60;99.90
18291;DHT22;9271;48.590;8.866;2023-04-01T15:47:46;11.30;99.90
18291;DHT22;9271;48.590;8.866;2023-04-01T15:50:39;11.20;99.90
18291;DHT22;9271;48.590;8.866;2023-04-01T15:53:18;11.30;99.90
18291;DHT22;9271;48.590;8.866;2023-04-01T15:55:50;11.50;99.90
18291;DHT22;9271;48.590;8.866;2023-04-01T15:58:38;11.30;99.90
18291;DHT22;9271;48.590;8.866;2023-04-01T16:01:15;11.30;99.90
18291;DHT22;9271;48.590;8.866;2023-04-01T16:03:51;11.50;99.90
18291;DHT22;9271;48.590;8.866;2023-04-01T16:06:47;11.50;99.90
18291;DHT22;9271;48.590;8.866;2023-04-01T16:09:39;11.70;99.90
18291;DHT22;9271;48.590;8.866;2023-04-01T16:12:16;11.90;99.90
18291;DHT22;9271;48.590;8.866;2023-04-01T16:14:54;12.00;99.90
18291;DHT22;9271;48.590;8.866;2023-04-01T16:17:36;12.20;99.90
18291;DHT22;9271;48.590;8.866;2023-04-01T16:20:17;12.00;99.90
18291;DHT22;9271;48.590;8.866;2023-04-01T16:22:49;12.40;99.90
18291;DHT22;9271;48.590;8.866;2023-04-01T16:25:29;12.60;99.90
18291;DHT22;9271;48.590;8.866;2023-04-01T16:28:09;13.00;99.00
18291;DHT22;9271;48.590;8.866;2023-04-01T16:30:44;12.50;99.30
18291;DHT22;9271;48.590;8.866;2023-04-01T16:33:15;12.10;99.30
18291;DHT22;9271;48.590;8.866;2023-04-01T16:35:49;12.30;99.40
18291;DHT22;9271;48.590;8.866;2023-04-01T16:38:24;12.30;99.40
18291;DHT22;9271;48.590;8.866;2023-04-01T16:41:01;12.20;99.50
18291;DHT22;9271;48.590;8.866;2023-04-01T16:43:39;12.00;99.40
18291;DHT22;9271;48.590;8.866;2023-04-01T16:46:19;11.90;99.90
18291;DHT22;9271;48.590;8.866;2023-04-01T16:48:58;12.10;99.80
18291;DHT22;9271;48.590;8.866;2023-04-01T16:51:31;12.00;99.90
18291;DHT22;9271;48.590;8.866;2023-04-01T16:54:05;12.10;99.90
18291;DHT22;9271;48.590;8.866;2023-04-01T16:56:40;11.90;99.90
18291;DHT22;9271;48.590;8.866;2023-04-01T16:59:16;11.80;99.90
18291;DHT22;9271;48.590;8.866;2023-04-01T17:01:49;11.40;99.90
18291;DHT22;9271;48.590;8.866;2023-04-01T17:04:29;11.50;99.90
18291;DHT22;9271;48.590;8.866;2023-04-01T17:07:05;11.80;99.90
18291;DHT22;9271;48.590;8.866;2023-04-01T17:09:45;11.70;99.90
18291;DHT22;9271;48.590;8.866;2023-04-01T17:12:20;11.80;99.90
18291;DHT22;9271;48.590;8.866;2023-04-01T17:14:54;11.30;99.90
18291;DHT22;9271;48.590;8.866;2023-04-01T17:17:31;11.00;99.90
18291;DHT22;9271;48.590;8.866;2023-04-01T17:20:19;11.20;99.90
18291;DHT22;9271;48.590;8.866;2023-04-01T17:22:54;11.10;99.90
18291;DHT22;9271;48.590;8.866;2023-04-01T17:25:34;11.30;99.90
18291;DHT22;9271;48.590;8.866;2023-04-01T17:28:13;11.00;99.90
18291;DHT22;9271;48.590;8.866;2023-04-01T17:30:46;11.20;99.90
18291;DHT22;9271;48.590;8.866;2023-04-01T17:33:37;11.20;99.90
18291;DHT22;9271;48.590;8.866;2023-04-01T17:36:16;11.40;99.90